Terminal Aerodrome Forecast
Issued by NWS

Home | Current Version | Previous Version | Text Only | Print | Product List | Glossary On
Versions: 1 2 3 4 5 6 7 8 9 10 11 12 13 14 15
000
FTUS45 KTFX 260544
TAFCTB
TAF
KCTB 260544Z 2606/2706 VRB04KT P6SM SCT060
     FM261400 33005KT P6SM SCT040 BKN080
     FM261700 28005KT P6SM VCSH SCT040 BKN070 PROB30 2621/2703 -SHRA
      BKN050=

USA.gov is the U.S. government's official web portal to all federal, state and local government web resources and services.